createdAt,value
2023-03-22T00:01:23.968Z,97.60
2023-03-22T00:05:25.725Z,97.60
2023-03-22T00:09:27.543Z,97.40
2023-03-22T00:13:29.490Z,97.40
2023-03-22T00:17:32.870Z,97.30
2023-03-22T00:21:34.756Z,97.30
2023-03-22T00:25:36.567Z,97.30
2023-03-22T00:29:38.454Z,97.20
2023-03-22T00:33:40.672Z,97.40
2023-03-22T00:37:42.506Z,97.20
2023-03-22T00:41:44.427Z,97.40
2023-03-22T00:45:46.769Z,97.40
2023-03-22T00:49:48.672Z,97.10
2023-03-22T00:53:51.052Z,97.20
2023-03-22T00:57:53.037Z,97.00
2023-03-22T01:01:56.618Z,97.30
2023-03-22T01:05:58.578Z,97.30
2023-03-22T01:10:00.429Z,97.20
2023-03-22T01:14:02.270Z,97.20
2023-03-22T01:18:04.442Z,97.30
2023-03-22T01:22:06.928Z,97.20
2023-03-22T01:26:09.551Z,96.80
2023-03-22T01:30:12.074Z,96.40
2023-03-22T01:34:14.120Z,96.60
2023-03-22T01:38:16.229Z,96.90
2023-03-22T01:42:27.848Z,96.60
2023-03-22T01:46:33.055Z,96.50
2023-03-22T01:50:37.383Z,96.40
2023-03-22T01:54:47.284Z,96.60
2023-03-22T01:59:14.280Z,96.90
2023-03-22T02:04:04.762Z,96.70
2023-03-22T02:08:08.946Z,96.70
2023-03-22T02:12:55.402Z,96.30
2023-03-22T02:17:37.600Z,96.50
2023-03-22T02:22:01.280Z,96.50
2023-03-22T02:26:39.346Z,96.30
2023-03-22T02:30:53.051Z,96.10
2023-03-22T02:35:13.827Z,96.00
2023-03-22T02:39:36.705Z,96.30
2023-03-22T02:43:41.587Z,96.80
2023-03-22T02:48:02.908Z,96.60
2023-03-22T02:52:17.481Z,96.30
2023-03-22T02:56:24.298Z,96.30
2023-03-22T03:00:27.994Z,95.90
2023-03-22T03:04:34.378Z,95.90
2023-03-22T03:08:38.699Z,95.60
2023-03-22T03:12:40.774Z,95.40
2023-03-22T03:16:42.646Z,95.50
2023-03-22T03:20:56.390Z,95.80
2023-03-22T03:25:08.103Z,95.90
2023-03-22T03:29:25.927Z,95.90
2023-03-22T03:33:28.463Z,95.80
2023-03-22T03:37:47.131Z,95.80
2023-03-22T03:41:51.698Z,95.50
2023-03-22T03:45:55.217Z,95.50
2023-03-22T03:49:57.757Z,95.10
2023-03-22T03:53:59.609Z,95.10
2023-03-22T03:58:01.510Z,95.50
2023-03-22T04:02:03.609Z,95.30
2023-03-22T04:06:08.940Z,95.30
2023-03-22T04:10:13.270Z,95.10
2023-03-22T04:14:15.856Z,95.10
2023-03-22T04:18:17.870Z,95.00
2023-03-22T04:22:20.259Z,94.90
2023-03-22T04:26:23.049Z,95.00
2023-03-22T04:30:51.964Z,95.30
2023-03-22T04:35:47.764Z,94.90
2023-03-22T04:39:50.512Z,94.90
2023-03-22T04:44:02.705Z,94.80
2023-03-22T04:48:07.844Z,95.00
2023-03-22T04:52:12.162Z,95.20
2023-03-22T04:56:17.100Z,95.00
2023-03-22T05:00:21.736Z,94.60
2023-03-22T05:04:24.737Z,94.60
2023-03-22T05:08:33.943Z,94.60
2023-03-22T05:12:36.808Z,94.50
2023-03-22T05:16:50.457Z,94.50
2023-03-22T05:20:55.695Z,94.50
2023-03-22T05:24:58.859Z,94.40
2023-03-22T05:29:02.303Z,94.50
2023-03-22T05:33:29.563Z,94.50
2023-03-22T05:37:32.881Z,94.40
2023-03-22T05:41:37.001Z,94.30
2023-03-22T05:45:39.651Z,94.60
2023-03-22T05:49:51.620Z,94.50
2023-03-22T05:53:54.419Z,94.40
2023-03-22T05:58:01.932Z,94.50
2023-03-22T06:02:06.400Z,94.50
2023-03-22T06:06:10.724Z,94.80
2023-03-22T06:10:30.912Z,94.70
2023-03-22T06:14:32.826Z,94.80
2023-03-22T06:19:03.937Z,95.00
2023-03-22T06:23:06.761Z,95.10
2023-03-22T06:27:10.565Z,95.00
2023-03-22T06:31:14.559Z,95.20
2023-03-22T06:35:29.904Z,95.30
2023-03-22T06:39:32.085Z,95.40
2023-03-22T06:43:33.936Z,95.50
2023-03-22T06:47:47.939Z,95.30
2023-03-22T06:52:18.709Z,95.30
2023-03-22T06:56:20.694Z,95.60
2023-03-22T07:00:26.524Z,96.00
2023-03-22T07:04:29.130Z,96.60
2023-03-22T07:08:31.085Z,96.80
2023-03-22T07:12:33.592Z,96.80
2023-03-22T07:16:40.982Z,96.60
2023-03-22T07:20:43.092Z,96.30
2023-03-22T07:24:56.165Z,96.10
2023-03-22T07:29:00.754Z,96.20
2023-03-22T07:33:10.447Z,96.10
2023-03-22T07:37:13.095Z,96.60
2023-03-22T07:41:16.835Z,96.40
2023-03-22T07:45:29.224Z,96.30
2023-03-22T07:49:50.019Z,96.10
2023-03-22T07:54:01.247Z,96.20
2023-03-22T07:58:03.813Z,97.10
2023-03-22T08:02:06.661Z,96.90
2023-03-22T08:06:14.371Z,96.80
2023-03-22T08:10:17.082Z,96.70
2023-03-22T08:14:30.568Z,96.60
2023-03-22T08:18:36.443Z,96.50
2023-03-22T08:22:38.519Z,95.80
2023-03-22T08:26:59.067Z,95.50
2023-03-22T08:31:17.094Z,96.00
2023-03-22T08:35:20.926Z,95.80
2023-03-22T08:39:24.746Z,96.00
2023-03-22T08:43:50.133Z,95.80
2023-03-22T08:47:52.242Z,95.80
2023-03-22T08:51:57.958Z,95.80
2023-03-22T08:56:28.847Z,94.90
2023-03-22T09:00:48.692Z,95.10
2023-03-22T09:04:59.163Z,94.50
2023-03-22T09:09:01.577Z,93.20
2023-03-22T09:13:03.546Z,93.70
2023-03-22T09:17:05.563Z,93.50
2023-03-22T09:21:08.537Z,93.40
2023-03-22T09:25:18.327Z,92.00
2023-03-22T09:29:23.664Z,91.30
2023-03-22T09:33:25.673Z,91.40
2023-03-22T09:37:30.439Z,90.90
2023-03-22T09:41:36.592Z,91.90
2023-03-22T09:45:43.518Z,90.90
2023-03-22T09:49:53.685Z,91.00
2023-03-22T09:53:55.941Z,90.90
2023-03-22T09:58:39.153Z,92.30
2023-03-22T10:02:46.809Z,92.40
2023-03-22T10:06:59.823Z,92.10
2023-03-22T10:11:01.764Z,92.10
2023-03-22T10:15:08.516Z,92.20
2023-03-22T10:19:21.342Z,91.90
2023-03-22T10:23:49.178Z,91.80
2023-03-22T10:27:52.041Z,91.70
2023-03-22T10:31:55.309Z,91.30
2023-03-22T10:35:57.519Z,91.90
2023-03-22T10:40:07.750Z,91.60
2023-03-22T10:44:16.322Z,91.60
2023-03-22T10:48:25.770Z,90.90
2023-03-22T10:52:30.669Z,91.30
2023-03-22T10:56:32.639Z,91.10
2023-03-22T11:00:35.142Z,91.80
2023-03-22T11:04:38.317Z,91.20
2023-03-22T11:08:46.464Z,90.20
2023-03-22T11:13:13.438Z,91.00
2023-03-22T11:17:21.299Z,91.70
2023-03-22T11:21:30.228Z,92.30
2023-03-22T11:25:35.785Z,91.80
2023-03-22T11:29:47.146Z,91.10
2023-03-22T11:33:56.312Z,91.00
2023-03-22T11:37:59.172Z,92.10
2023-03-22T11:42:06.239Z,92.30
2023-03-22T11:46:08.975Z,92.00
2023-03-22T11:50:28.794Z,90.40
2023-03-22T11:54:34.678Z,91.20
2023-03-22T11:58:45.399Z,90.00
2023-03-22T12:03:14.043Z,89.90
2023-03-22T12:07:20.907Z,89.80
2023-03-22T12:11:33.357Z,90.40
2023-03-22T12:15:40.421Z,90.80
2023-03-22T12:19:59.408Z,90.50
2023-03-22T12:24:04.432Z,90.00
2023-03-22T12:28:11.884Z,88.10
2023-03-22T12:32:38.746Z,90.20
2023-03-22T12:36:52.459Z,86.40
2023-03-22T12:40:57.704Z,89.20
2023-03-22T12:45:05.744Z,86.90
2023-03-22T12:49:21.486Z,86.70
2023-03-22T12:53:28.178Z,86.80
2023-03-22T12:57:30.042Z,89.20
2023-03-22T13:01:52.117Z,89.40
2023-03-22T13:06:29.029Z,88.90
2023-03-22T13:10:31.133Z,82.20
2023-03-22T13:14:58.513Z,81.90
2023-03-22T13:19:02.667Z,82.10
2023-03-22T13:23:27.461Z,80.80
2023-03-22T13:27:53.826Z,81.50
2023-03-22T13:31:59.130Z,79.90
2023-03-22T13:36:07.262Z,76.90
2023-03-22T13:40:22.953Z,79.20
2023-03-22T13:44:38.113Z,79.00
2023-03-22T13:48:48.822Z,77.00
2023-03-22T13:52:58.895Z,78.90
2023-03-22T13:57:01.350Z,76.80
2023-03-22T14:01:06.908Z,76.70
2023-03-22T14:05:23.417Z,77.00
2023-03-22T14:09:33.617Z,77.60
2023-03-22T14:13:42.448Z,76.70
2023-03-22T14:17:56.385Z,76.80
